sensor_id;sensor_type;location;lat;lon;timestamp;temperature;humidity
78902;DHT22;70441;44.758;37.686;2023-07-13T00:00:58;22.38;79.88
78902;DHT22;70441;44.758;37.686;2023-07-13T00:02:00;22.40;79.73
78902;DHT22;70441;44.758;37.686;2023-07-13T00:03:01;22.40;79.53
78902;DHT22;70441;44.758;37.686;2023-07-13T00:04:03;22.42;79.60
78902;DHT22;70441;44.758;37.686;2023-07-13T00:05:05;22.42;79.60
78902;DHT22;70441;44.758;37.686;2023-07-13T00:06:08;22.42;79.47
78902;DHT22;70441;44.758;37.686;2023-07-13T00:07:09;22.43;79.58
78902;DHT22;70441;44.758;37.686;2023-07-13T00:08:10;22.42;79.57
78902;DHT22;70441;44.758;37.686;2023-07-13T00:09:16;22.43;79.49
78902;DHT22;70441;44.758;37.686;2023-07-13T00:10:18;22.43;79.54
78902;DHT22;70441;44.758;37.686;2023-07-13T00:11:19;22.40;79.57
78902;DHT22;70441;44.758;37.686;2023-07-13T00:12:31;22.42;79.60
78902;DHT22;70441;44.758;37.686;2023-07-13T00:13:33;22.40;79.66
78902;DHT22;70441;44.758;37.686;2023-07-13T00:14:34;22.38;79.80
78902;DHT22;70441;44.758;37.686;2023-07-13T00:15:36;22.38;79.80
78902;DHT22;70441;44.758;37.686;2023-07-13T00:16:39;22.40;79.75
78902;DHT22;70441;44.758;37.686;2023-07-13T00:17:44;22.39;79.74
78902;DHT22;70441;44.758;37.686;2023-07-13T00:18:46;22.38;79.74
78902;DHT22;70441;44.758;37.686;2023-07-13T00:19:48;22.39;79.63
78902;DHT22;70441;44.758;37.686;2023-07-13T00:20:49;22.42;79.58
78902;DHT22;70441;44.758;37.686;2023-07-13T00:21:51;22.40;79.52
78902;DHT22;70441;44.758;37.686;2023-07-13T00:23:02;22.42;79.41
78902;DHT22;70441;44.758;37.686;2023-07-13T00:24:03;22.42;79.43
78902;DHT22;70441;44.758;37.686;2023-07-13T00:25:11;22.42;79.68
78902;DHT22;70441;44.758;37.686;2023-07-13T00:26:13;22.40;79.61
78902;DHT22;70441;44.758;37.686;2023-07-13T00:27:14;22.42;79.87
78902;DHT22;70441;44.758;37.686;2023-07-13T00:28:16;22.43;79.95
78902;DHT22;70441;44.758;37.686;2023-07-13T00:29:23;22.47;79.85
78902;DHT22;70441;44.758;37.686;2023-07-13T00:30:25;22.46;79.82
78902;DHT22;70441;44.758;37.686;2023-07-13T00:31:27;22.46;80.00
78902;DHT22;70441;44.758;37.686;2023-07-13T00:32:28;22.49;79.84
78902;DHT22;70441;44.758;37.686;2023-07-13T00:33:30;22.50;79.83
78902;DHT22;70441;44.758;37.686;2023-07-13T00:34:38;22.47;79.84
78902;DHT22;70441;44.758;37.686;2023-07-13T00:35:39;22.49;79.70
78902;DHT22;70441;44.758;37.686;2023-07-13T00:36:42;22.52;79.48
78902;DHT22;70441;44.758;37.686;2023-07-13T00:37:43;22.54;79.37
78902;DHT22;70441;44.758;37.686;2023-07-13T00:38:45;22.53;79.26
78902;DHT22;70441;44.758;37.686;2023-07-13T00:39:51;22.53;79.31
78902;DHT22;70441;44.758;37.686;2023-07-13T00:40:53;22.54;79.51
78902;DHT22;70441;44.758;37.686;2023-07-13T00:41:54;22.56;79.41
78902;DHT22;70441;44.758;37.686;2023-07-13T00:42:57;22.59;79.33
78902;DHT22;70441;44.758;37.686;2023-07-13T00:43:59;22.57;79.17
78902;DHT22;70441;44.758;37.686;2023-07-13T00:46:20;22.56;79.37
78902;DHT22;70441;44.758;37.686;2023-07-13T00:47:27;22.57;79.24
78902;DHT22;70441;44.758;37.686;2023-07-13T00:48:36;22.59;79.22
78902;DHT22;70441;44.758;37.686;2023-07-13T00:49:38;22.54;79.18
78902;DHT22;70441;44.758;37.686;2023-07-13T00:50:40;22.52;79.28
78902;DHT22;70441;44.758;37.686;2023-07-13T00:52:56;22.52;79.51
78902;DHT22;70441;44.758;37.686;2023-07-13T00:54:07;22.47;79.55
78902;DHT22;70441;44.758;37.686;2023-07-13T00:55:17;22.45;79.76
78902;DHT22;70441;44.758;37.686;2023-07-13T00:56:19;22.43;79.78
78902;DHT22;70441;44.758;37.686;2023-07-13T00:57:21;22.43;79.76
78902;DHT22;70441;44.758;37.686;2023-07-13T00:58:24;22.43;79.72
78902;DHT22;70441;44.758;37.686;2023-07-13T00:59:26;22.46;79.69
78902;DHT22;70441;44.758;37.686;2023-07-13T01:00:29;22.43;79.54
78902;DHT22;70441;44.758;37.686;2023-07-13T01:01:32;22.46;79.42
78902;DHT22;70441;44.758;37.686;2023-07-13T01:02:42;22.53;79.41
78902;DHT22;70441;44.758;37.686;2023-07-13T01:03:43;22.47;79.62
78902;DHT22;70441;44.758;37.686;2023-07-13T01:04:45;22.46;79.84
78902;DHT22;70441;44.758;37.686;2023-07-13T01:05:48;22.43;79.94
78902;DHT22;70441;44.758;37.686;2023-07-13T01:06:50;22.43;79.93
78902;DHT22;70441;44.758;37.686;2023-07-13T01:07:52;22.43;80.07
78902;DHT22;70441;44.758;37.686;2023-07-13T01:08:55;22.43;79.95
78902;DHT22;70441;44.758;37.686;2023-07-13T01:09:58;22.43;79.93
78902;DHT22;70441;44.758;37.686;2023-07-13T01:10:59;22.46;80.19
78902;DHT22;70441;44.758;37.686;2023-07-13T01:12:00;22.50;79.87
78902;DHT22;70441;44.758;37.686;2023-07-13T01:13:02;22.50;79.56
78902;DHT22;70441;44.758;37.686;2023-07-13T01:14:04;22.50;80.00
78902;DHT22;70441;44.758;37.686;2023-07-13T01:15:06;22.46;79.96
78902;DHT22;70441;44.758;37.686;2023-07-13T01:16:35;22.45;80.09
78902;DHT22;70441;44.758;37.686;2023-07-13T01:17:36;22.43;79.94
78902;DHT22;70441;44.758;37.686;2023-07-13T01:18:38;22.43;80.04
78902;DHT22;70441;44.758;37.686;2023-07-13T01:19:42;22.45;79.95
78902;DHT22;70441;44.758;37.686;2023-07-13T01:21:55;22.40;79.82
78902;DHT22;70441;44.758;37.686;2023-07-13T01:22:57;22.42;79.97
78902;DHT22;70441;44.758;37.686;2023-07-13T01:23:59;22.36;80.07
78902;DHT22;70441;44.758;37.686;2023-07-13T01:25:02;22.40;79.88
78902;DHT22;70441;44.758;37.686;2023-07-13T01:26:09;22.40;79.90
78902;DHT22;70441;44.758;37.686;2023-07-13T01:27:13;22.38;80.25
78902;DHT22;70441;44.758;37.686;2023-07-13T01:28:15;22.33;80.47
78902;DHT22;70441;44.758;37.686;2023-07-13T01:29:17;22.32;80.59
78902;DHT22;70441;44.758;37.686;2023-07-13T01:30:19;22.29;80.25
78902;DHT22;70441;44.758;37.686;2023-07-13T01:31:20;22.28;80.29
78902;DHT22;70441;44.758;37.686;2023-07-13T01:32:23;22.26;80.32
78902;DHT22;70441;44.758;37.686;2023-07-13T01:33:28;22.28;80.45
78902;DHT22;70441;44.758;37.686;2023-07-13T01:34:31;22.29;80.56
78902;DHT22;70441;44.758;37.686;2023-07-13T01:35:32;22.29;80.61
78902;DHT22;70441;44.758;37.686;2023-07-13T01:36:34;22.29;80.09
78902;DHT22;70441;44.758;37.686;2023-07-13T01:37:35;22.25;80.17
78902;DHT22;70441;44.758;37.686;2023-07-13T01:38:37;22.23;80.38
78902;DHT22;70441;44.758;37.686;2023-07-13T01:39:38;22.21;80.31
78902;DHT22;70441;44.758;37.686;2023-07-13T01:40:45;22.18;80.37
78902;DHT22;70441;44.758;37.686;2023-07-13T01:41:46;22.16;80.11
78902;DHT22;70441;44.758;37.686;2023-07-13T01:42:48;22.14;79.85
78902;DHT22;70441;44.758;37.686;2023-07-13T01:43:54;22.14;80.43
78902;DHT22;70441;44.758;37.686;2023-07-13T01:44:56;22.09;81.02
78902;DHT22;70441;44.758;37.686;2023-07-13T01:45:57;22.04;81.30
78902;DHT22;70441;44.758;37.686;2023-07-13T01:46:58;22.00;81.61
78902;DHT22;70441;44.758;37.686;2023-07-13T01:47:59;21.95;81.82
78902;DHT22;70441;44.758;37.686;2023-07-13T01:49:01;21.94;82.07
78902;DHT22;70441;44.758;37.686;2023-07-13T01:50:03;21.88;82.20
78902;DHT22;70441;44.758;37.686;2023-07-13T01:51:05;21.87;82.54
78902;DHT22;70441;44.758;37.686;2023-07-13T01:52:06;21.86;82.11
78902;DHT22;70441;44.758;37.686;2023-07-13T01:53:08;21.87;81.86
78902;DHT22;70441;44.758;37.686;2023-07-13T01:54:09;21.88;81.92
78902;DHT22;70441;44.758;37.686;2023-07-13T01:55:10;21.88;82.02
78902;DHT22;70441;44.758;37.686;2023-07-13T01:56:12;21.91;82.21
78902;DHT22;70441;44.758;37.686;2023-07-13T01:57:13;21.90;82.04
78902;DHT22;70441;44.758;37.686;2023-07-13T01:58:14;21.93;81.88
78902;DHT22;70441;44.758;37.686;2023-07-13T01:59:21;21.93;81.81
78902;DHT22;70441;44.758;37.686;2023-07-13T02:00:22;21.94;81.93
78902;DHT22;70441;44.758;37.686;2023-07-13T02:01:24;22.00;81.64
78902;DHT22;70441;44.758;37.686;2023-07-13T02:02:30;22.01;81.54
78902;DHT22;70441;44.758;37.686;2023-07-13T02:03:32;22.02;81.70
78902;DHT22;70441;44.758;37.686;2023-07-13T02:04:33;22.04;82.08
78902;DHT22;70441;44.758;37.686;2023-07-13T02:05:35;22.02;82.37
78902;DHT22;70441;44.758;37.686;2023-07-13T02:06:37;21.98;82.65
78902;DHT22;70441;44.758;37.686;2023-07-13T02:07:38;22.00;82.74
78902;DHT22;70441;44.758;37.686;2023-07-13T02:08:41;22.02;82.59
78902;DHT22;70441;44.758;37.686;2023-07-13T02:09:43;22.06;82.55
78902;DHT22;70441;44.758;37.686;2023-07-13T02:10:44;22.11;82.30
78902;DHT22;70441;44.758;37.686;2023-07-13T02:11:46;22.12;82.32
78902;DHT22;70441;44.758;37.686;2023-07-13T02:12:48;22.14;82.10
78902;DHT22;70441;44.758;37.686;2023-07-13T02:13:51;22.15;82.06
78902;DHT22;70441;44.758;37.686;2023-07-13T02:14:53;22.15;82.11
78902;DHT22;70441;44.758;37.686;2023-07-13T02:15:54;22.18;81.99
78902;DHT22;70441;44.758;37.686;2023-07-13T02:17:01;22.14;82.05
78902;DHT22;70441;44.758;37.686;2023-07-13T02:18:02;22.12;82.15
78902;DHT22;70441;44.758;37.686;2023-07-13T02:19:04;22.09;82.15
78902;DHT22;70441;44.758;37.686;2023-07-13T02:20:07;22.08;82.36
78902;DHT22;70441;44.758;37.686;2023-07-13T02:21:09;22.08;82.48
78902;DHT22;70441;44.758;37.686;2023-07-13T02:22:10;22.05;82.40
78902;DHT22;70441;44.758;37.686;2023-07-13T02:23:11;22.08;82.37
78902;DHT22;70441;44.758;37.686;2023-07-13T02:24:13;22.08;82.34
78902;DHT22;70441;44.758;37.686;2023-07-13T02:25:18;22.06;82.25
78902;DHT22;70441;44.758;37.686;2023-07-13T02:26:19;22.06;82.22
78902;DHT22;70441;44.758;37.686;2023-07-13T02:27:22;22.05;82.17
78902;DHT22;70441;44.758;37.686;2023-07-13T02:28:24;22.06;82.15
78902;DHT22;70441;44.758;37.686;2023-07-13T02:29:26;22.04;82.16
78902;DHT22;70441;44.758;37.686;2023-07-13T02:30:27;22.04;82.10
78902;DHT22;70441;44.758;37.686;2023-07-13T02:31:30;22.05;82.15
78902;DHT22;70441;44.758;37.686;2023-07-13T02:32:37;22.06;81.91
78902;DHT22;70441;44.758;37.686;2023-07-13T02:33:38;22.05;81.95
78902;DHT22;70441;44.758;37.686;2023-07-13T02:34:40;22.05;81.91
78902;DHT22;70441;44.758;37.686;2023-07-13T02:35:42;22.05;81.92
78902;DHT22;70441;44.758;37.686;2023-07-13T02:36:49;22.04;81.89
78902;DHT22;70441;44.758;37.686;2023-07-13T02:37:50;22.02;81.92
78902;DHT22;70441;44.758;37.686;2023-07-13T02:38:51;22.02;81.86
78902;DHT22;70441;44.758;37.686;2023-07-13T02:39:53;22.02;81.83
78902;DHT22;70441;44.758;37.686;2023-07-13T02:41:00;22.01;81.82
78902;DHT22;70441;44.758;37.686;2023-07-13T02:42:02;22.00;81.82
78902;DHT22;70441;44.758;37.686;2023-07-13T02:43:04;21.95;81.91
78902;DHT22;70441;44.758;37.686;2023-07-13T02:44:06;21.94;82.14
78902;DHT22;70441;44.758;37.686;2023-07-13T02:45:09;21.94;81.99
78902;DHT22;70441;44.758;37.686;2023-07-13T02:46:11;21.93;81.74
78902;DHT22;70441;44.758;37.686;2023-07-13T02:47:12;21.90;81.83
78902;DHT22;70441;44.758;37.686;2023-07-13T02:48:14;21.90;81.97
78902;DHT22;70441;44.758;37.686;2023-07-13T02:49:15;21.87;82.09
78902;DHT22;70441;44.758;37.686;2023-07-13T02:50:17;21.86;81.91
78902;DHT22;70441;44.758;37.686;2023-07-13T02:51:24;21.88;81.94
78902;DHT22;70441;44.758;37.686;2023-07-13T02:52:26;21.91;81.81
78902;DHT22;70441;44.758;37.686;2023-07-13T02:53:28;21.95;82.08
78902;DHT22;70441;44.758;37.686;2023-07-13T02:54:29;21.98;82.01
78902;DHT22;70441;44.758;37.686;2023-07-13T02:55:31;21.98;82.13
78902;DHT22;70441;44.758;37.686;2023-07-13T02:56:37;22.01;81.93
78902;DHT22;70441;44.758;37.686;2023-07-13T02:57:40;22.05;82.01
78902;DHT22;70441;44.758;37.686;2023-07-13T02:58:42;22.06;82.11
78902;DHT22;70441;44.758;37.686;2023-07-13T02:59:43;22.08;81.96
78902;DHT22;70441;44.758;37.686;2023-07-13T03:00:45;22.09;82.01
78902;DHT22;70441;44.758;37.686;2023-07-13T03:01:47;22.12;81.99
78902;DHT22;70441;44.758;37.686;2023-07-13T03:02:49;22.12;82.08
78902;DHT22;70441;44.758;37.686;2023-07-13T03:03:51;22.06;81.85
78902;DHT22;70441;44.758;37.686;2023-07-13T03:04:55;22.08;81.95
78902;DHT22;70441;44.758;37.686;2023-07-13T03:06:02;22.14;81.70
78902;DHT22;70441;44.758;37.686;2023-07-13T03:07:10;22.18;81.85
78902;DHT22;70441;44.758;37.686;2023-07-13T03:08:12;22.22;82.07
78902;DHT22;70441;44.758;37.686;2023-07-13T03:09:16;22.29;81.83
78902;DHT22;70441;44.758;37.686;2023-07-13T03:10:23;22.38;82.02
78902;DHT22;70441;44.758;37.686;2023-07-13T03:11:27;22.47;82.12
78902;DHT22;70441;44.758;37.686;2023-07-13T03:12:36;22.49;81.43
78902;DHT22;70441;44.758;37.686;2023-07-13T03:13:41;22.54;81.91
78902;DHT22;70441;44.758;37.686;2023-07-13T03:14:43;22.59;81.30
78902;DHT22;70441;44.758;37.686;2023-07-13T03:15:49;22.67;81.26
78902;DHT22;70441;44.758;37.686;2023-07-13T03:16:51;22.84;80.94
78902;DHT22;70441;44.758;37.686;2023-07-13T03:17:54;22.98;81.02
78902;DHT22;70441;44.758;37.686;2023-07-13T03:18:55;23.11;79.90
78902;DHT22;70441;44.758;37.686;2023-07-13T03:19:57;23.30;79.42
78902;DHT22;70441;44.758;37.686;2023-07-13T03:20:59;23.46;79.44
78902;DHT22;70441;44.758;37.686;2023-07-13T03:22:00;23.65;78.90
78902;DHT22;70441;44.758;37.686;2023-07-13T03:23:02;23.88;78.22
78902;DHT22;70441;44.758;37.686;2023-07-13T03:24:05;24.06;77.43
78902;DHT22;70441;44.758;37.686;2023-07-13T03:25:06;24.19;76.27
78902;DHT22;70441;44.758;37.686;2023-07-13T03:26:11;24.37;75.59
78902;DHT22;70441;44.758;37.686;2023-07-13T03:27:16;24.53;75.46
78902;DHT22;70441;44.758;37.686;2023-07-13T03:28:18;24.63;74.28
78902;DHT22;70441;44.758;37.686;2023-07-13T03:29:19;24.68;74.27
78902;DHT22;70441;44.758;37.686;2023-07-13T03:30:21;24.81;73.55
78902;DHT22;70441;44.758;37.686;2023-07-13T03:31:25;24.89;73.58
78902;DHT22;70441;44.758;37.686;2023-07-13T03:32:27;25.03;72.86
78902;DHT22;70441;44.758;37.686;2023-07-13T03:33:28;25.17;72.84
78902;DHT22;70441;44.758;37.686;2023-07-13T03:34:35;25.37;72.03
78902;DHT22;70441;44.758;37.686;2023-07-13T03:35:40;25.55;71.51
78902;DHT22;70441;44.758;37.686;2023-07-13T03:36:42;25.68;71.13
78902;DHT22;70441;44.758;37.686;2023-07-13T03:37:46;25.86;70.06
78902;DHT22;70441;44.758;37.686;2023-07-13T03:38:54;26.01;69.49
78902;DHT22;70441;44.758;37.686;2023-07-13T03:39:59;26.08;69.04
78902;DHT22;70441;44.758;37.686;2023-07-13T03:41:06;26.14;68.97
78902;DHT22;70441;44.758;37.686;2023-07-13T03:42:08;26.28;68.27
78902;DHT22;70441;44.758;37.686;2023-07-13T03:43:09;26.37;68.23
78902;DHT22;70441;44.758;37.686;2023-07-13T03:44:11;26.52;68.03
78902;DHT22;70441;44.758;37.686;2023-07-13T03:45:12;26.59;67.28
78902;DHT22;70441;44.758;37.686;2023-07-13T03:46:14;26.69;68.33
78902;DHT22;70441;44.758;37.686;2023-07-13T03:47:16;26.83;66.53
78902;DHT22;70441;44.758;37.686;2023-07-13T03:48:19;26.87;66.71
78902;DHT22;70441;44.758;37.686;2023-07-13T03:49:25;26.86;66.92
78902;DHT22;70441;44.758;37.686;2023-07-13T03:50:28;26.87;66.66
78902;DHT22;70441;44.758;37.686;2023-07-13T03:51:31;26.94;66.79
78902;DHT22;70441;44.758;37.686;2023-07-13T03:52:32;27.06;66.34
78902;DHT22;70441;44.758;37.686;2023-07-13T03:53:37;27.14;66.70
78902;DHT22;70441;44.758;37.686;2023-07-13T03:54:39;27.30;65.88
78902;DHT22;70441;44.758;37.686;2023-07-13T03:55:41;27.45;65.28
78902;DHT22;70441;44.758;37.686;2023-07-13T03:56:42;27.57;64.95
78902;DHT22;70441;44.758;37.686;2023-07-13T03:57:44;27.59;64.56
78902;DHT22;70441;44.758;37.686;2023-07-13T03:58:48;27.57;64.20
78902;DHT22;70441;44.758;37.686;2023-07-13T03:59:52;27.46;64.71
78902;DHT22;70441;44.758;37.686;2023-07-13T04:00:54;27.17;65.02
78902;DHT22;70441;44.758;37.686;2023-07-13T04:01:56;26.96;65.26
78902;DHT22;70441;44.758;37.686;2023-07-13T04:02:57;27.10;64.55
78902;DHT22;70441;44.758;37.686;2023-07-13T04:03:58;27.30;63.62
78902;DHT22;70441;44.758;37.686;2023-07-13T04:05:00;27.46;63.79
78902;DHT22;70441;44.758;37.686;2023-07-13T04:06:03;27.50;62.85
78902;DHT22;70441;44.758;37.686;2023-07-13T04:07:05;27.52;63.13
78902;DHT22;70441;44.758;37.686;2023-07-13T04:08:06;27.55;63.80
78902;DHT22;70441;44.758;37.686;2023-07-13T04:09:08;27.57;62.68
78902;DHT22;70441;44.758;37.686;2023-07-13T04:10:09;27.62;62.66
78902;DHT22;70441;44.758;37.686;2023-07-13T04:11:11;27.62;62.54
78902;DHT22;70441;44.758;37.686;2023-07-13T04:12:12;27.63;63.16
78902;DHT22;70441;44.758;37.686;2023-07-13T04:13:14;27.62;62.56
78902;DHT22;70441;44.758;37.686;2023-07-13T04:14:16;27.74;62.77
78902;DHT22;70441;44.758;37.686;2023-07-13T04:15:17;27.76;61.16
78902;DHT22;70441;44.758;37.686;2023-07-13T04:16:19;27.73;61.95
78902;DHT22;70441;44.758;37.686;2023-07-13T04:17:20;27.79;62.56
78902;DHT22;70441;44.758;37.686;2023-07-13T04:18:22;27.83;62.13
78902;DHT22;70441;44.758;37.686;2023-07-13T04:19:23;27.94;61.19
78902;DHT22;70441;44.758;37.686;2023-07-13T04:20:25;27.96;61.57
78902;DHT22;70441;44.758;37.686;2023-07-13T04:21:28;27.96;61.32
78902;DHT22;70441;44.758;37.686;2023-07-13T04:22:29;27.98;61.22
78902;DHT22;70441;44.758;37.686;2023-07-13T04:23:31;28.04;61.11
78902;DHT22;70441;44.758;37.686;2023-07-13T04:24:32;28.05;61.48
78902;DHT22;70441;44.758;37.686;2023-07-13T04:25:33;28.08;60.75
78902;DHT22;70441;44.758;37.686;2023-07-13T04:26:35;28.17;60.99
78902;DHT22;70441;44.758;37.686;2023-07-13T04:27:42;28.25;60.33
78902;DHT22;70441;44.758;37.686;2023-07-13T04:28:43;28.28;60.81
78902;DHT22;70441;44.758;37.686;2023-07-13T04:29:45;28.39;60.78
78902;DHT22;70441;44.758;37.686;2023-07-13T04:30:46;28.55;61.17
78902;DHT22;70441;44.758;37.686;2023-07-13T04:31:47;28.67;60.51
78902;DHT22;70441;44.758;37.686;2023-07-13T04:32:51;28.78;60.12
78902;DHT22;70441;44.758;37.686;2023-07-13T04:33:53;28.88;59.97
78902;DHT22;70441;44.758;37.686;2023-07-13T04:34:54;29.02;59.26
78902;DHT22;70441;44.758;37.686;2023-07-13T04:35:57;29.19;57.63
78902;DHT22;70441;44.758;37.686;2023-07-13T04:36:58;29.20;56.42
78902;DHT22;70441;44.758;37.686;2023-07-13T04:38:00;29.20;56.96
78902;DHT22;70441;44.758;37.686;2023-07-13T04:39:07;29.29;57.64
78902;DHT22;70441;44.758;37.686;2023-07-13T04:40:08;29.58;56.63
78902;DHT22;70441;44.758;37.686;2023-07-13T04:41:13;29.68;55.35
78902;DHT22;70441;44.758;37.686;2023-07-13T04:42:15;29.63;55.49
78902;DHT22;70441;44.758;37.686;2023-07-13T04:43:18;29.64;56.07
78902;DHT22;70441;44.758;37.686;2023-07-13T04:44:19;29.68;54.68
78902;DHT22;70441;44.758;37.686;2023-07-13T04:45:20;29.67;55.43
78902;DHT22;70441;44.758;37.686;2023-07-13T04:46:22;29.53;55.39
78902;DHT22;70441;44.758;37.686;2023-07-13T04:47:24;29.42;55.28
78902;DHT22;70441;44.758;37.686;2023-07-13T04:48:31;29.29;55.92
78902;DHT22;70441;44.758;37.686;2023-07-13T04:49:32;29.16;56.14
78902;DHT22;70441;44.758;37.686;2023-07-13T04:50:36;29.05;56.69
78902;DHT22;70441;44.758;37.686;2023-07-13T04:51:38;28.78;57.28
78902;DHT22;70441;44.758;37.686;2023-07-13T04:52:39;28.68;57.44
78902;DHT22;70441;44.758;37.686;2023-07-13T04:53:40;28.50;58.08
78902;DHT22;70441;44.758;37.686;2023-07-13T04:54:42;28.39;57.94
78902;DHT22;70441;44.758;37.686;2023-07-13T04:55:43;28.26;58.13
78902;DHT22;70441;44.758;37.686;2023-07-13T04:56:44;28.11;58.64
78902;DHT22;70441;44.758;37.686;2023-07-13T04:57:46;27.98;58.92
78902;DHT22;70441;44.758;37.686;2023-07-13T04:58:48;27.86;59.53
78902;DHT22;70441;44.758;37.686;2023-07-13T04:59:49;27.86;60.28
78902;DHT22;70441;44.758;37.686;2023-07-13T05:00:50;27.79;60.01
78902;DHT22;70441;44.758;37.686;2023-07-13T05:01:52;27.73;60.08
78902;DHT22;70441;44.758;37.686;2023-07-13T05:02:55;27.66;60.49
78902;DHT22;70441;44.758;37.686;2023-07-13T05:03:56;27.57;60.57
78902;DHT22;70441;44.758;37.686;2023-07-13T05:05:00;27.48;60.81
78902;DHT22;70441;44.758;37.686;2023-07-13T05:06:06;27.38;61.36
78902;DHT22;70441;44.758;37.686;2023-07-13T05:07:07;27.34;61.31
78902;DHT22;70441;44.758;37.686;2023-07-13T05:08:09;27.21;60.96
78902;DHT22;70441;44.758;37.686;2023-07-13T05:09:10;27.12;61.80
78902;DHT22;70441;44.758;37.686;2023-07-13T05:10:13;27.07;61.63
78902;DHT22;70441;44.758;37.686;2023-07-13T05:11:20;26.97;62.11
78902;DHT22;70441;44.758;37.686;2023-07-13T05:12:21;26.97;62.33
78902;DHT22;70441;44.758;37.686;2023-07-13T05:13:23;26.96;61.70
78902;DHT22;70441;44.758;37.686;2023-07-13T05:14:24;26.87;62.56
78902;DHT22;70441;44.758;37.686;2023-07-13T05:15:26;26.90;62.51
78902;DHT22;70441;44.758;37.686;2023-07-13T05:16:28;26.83;61.81
78902;DHT22;70441;44.758;37.686;2023-07-13T05:17:29;26.79;62.52
78902;DHT22;70441;44.758;37.686;2023-07-13T05:18:31;26.73;62.34
78902;DHT22;70441;44.758;37.686;2023-07-13T05:19:37;26.72;62.85
78902;DHT22;70441;44.758;37.686;2023-07-13T05:20:39;26.73;62.73
78902;DHT22;70441;44.758;37.686;2023-07-13T05:21:46;26.68;63.52
78902;DHT22;70441;44.758;37.686;2023-07-13T05:22:47;26.66;62.73
78902;DHT22;70441;44.758;37.686;2023-07-13T05:23:49;26.65;62.98
78902;DHT22;70441;44.758;37.686;2023-07-13T05:24:50;26.65;62.90
78902;DHT22;70441;44.758;37.686;2023-07-13T05:25:52;26.62;62.90
78902;DHT22;70441;44.758;37.686;2023-07-13T05:26:53;26.63;62.43
78902;DHT22;70441;44.758;37.686;2023-07-13T05:27:54;26.60;61.42
78902;DHT22;70441;44.758;37.686;2023-07-13T05:29:01;26.59;61.63
78902;DHT22;70441;44.758;37.686;2023-07-13T05:30:03;26.58;60.00
78902;DHT22;70441;44.758;37.686;2023-07-13T05:31:08;26.58;60.09
78902;DHT22;70441;44.758;37.686;2023-07-13T05:32:10;26.60;60.93
78902;DHT22;70441;44.758;37.686;2023-07-13T05:33:11;26.59;59.57
78902;DHT22;70441;44.758;37.686;2023-07-13T05:34:13;26.53;60.53
78902;DHT22;70441;44.758;37.686;2023-07-13T05:35:14;26.55;60.93
78902;DHT22;70441;44.758;37.686;2023-07-13T05:36:15;26.51;61.00
78902;DHT22;70441;44.758;37.686;2023-07-13T05:37:17;26.47;60.94
78902;DHT22;70441;44.758;37.686;2023-07-13T05:38:18;26.47;60.44
78902;DHT22;70441;44.758;37.686;2023-07-13T05:39:19;26.48;60.69
78902;DHT22;70441;44.758;37.686;2023-07-13T05:40:20;26.47;60.68
78902;DHT22;70441;44.758;37.686;2023-07-13T05:41:22;26.47;60.71
78902;DHT22;70441;44.758;37.686;2023-07-13T05:42:23;26.45;60.28
78902;DHT22;70441;44.758;37.686;2023-07-13T05:43:24;26.49;60.41
78902;DHT22;70441;44.758;37.686;2023-07-13T05:44:26;26.63;59.85
78902;DHT22;70441;44.758;37.686;2023-07-13T05:45:27;26.79;59.12
78902;DHT22;70441;44.758;37.686;2023-07-13T05:46:29;26.97;58.66
78902;DHT22;70441;44.758;37.686;2023-07-13T05:47:30;27.10;59.57
78902;DHT22;70441;44.758;37.686;2023-07-13T05:48:32;27.24;57.80
78902;DHT22;70441;44.758;37.686;2023-07-13T05:49:33;27.32;57.62
78902;DHT22;70441;44.758;37.686;2023-07-13T05:50:35;27.45;57.80
78902;DHT22;70441;44.758;37.686;2023-07-13T05:51:37;27.43;58.14
78902;DHT22;70441;44.758;37.686;2023-07-13T05:52:38;27.57;57.66
78902;DHT22;70441;44.758;37.686;2023-07-13T05:53:39;27.56;57.55
78902;DHT22;70441;44.758;37.686;2023-07-13T05:54:41;27.63;57.74
78902;DHT22;70441;44.758;37.686;2023-07-13T05:55:43;27.71;57.30
78902;DHT22;70441;44.758;37.686;2023-07-13T05:56:45;27.73;56.98
78902;DHT22;70441;44.758;37.686;2023-07-13T05:57:46;27.83;56.74
78902;DHT22;70441;44.758;37.686;2023-07-13T05:58:48;27.90;56.52
78902;DHT22;70441;44.758;37.686;2023-07-13T05:59:50;27.96;56.15
78902;DHT22;70441;44.758;37.686;2023-07-13T06:01:03;27.87;55.50
78902;DHT22;70441;44.758;37.686;2023-07-13T06:02:08;27.71;55.55
78902;DHT22;70441;44.758;37.686;2023-07-13T06:03:10;27.59;56.72
78902;DHT22;70441;44.758;37.686;2023-07-13T06:04:12;27.46;57.97
78902;DHT22;70441;44.758;37.686;2023-07-13T06:05:13;27.43;57.87
78902;DHT22;70441;44.758;37.686;2023-07-13T06:06:15;27.45;56.89
78902;DHT22;70441;44.758;37.686;2023-07-13T06:07:17;27.48;57.10
78902;DHT22;70441;44.758;37.686;2023-07-13T06:08:18;27.52;56.62
78902;DHT22;70441;44.758;37.686;2023-07-13T06:09:20;27.56;57.24
78902;DHT22;70441;44.758;37.686;2023-07-13T06:10:21;27.82;56.23
78902;DHT22;70441;44.758;37.686;2023-07-13T06:11:26;27.80;56.79
78902;DHT22;70441;44.758;37.686;2023-07-13T06:12:28;27.87;56.72
78902;DHT22;70441;44.758;37.686;2023-07-13T06:13:29;27.89;55.54
78902;DHT22;70441;44.758;37.686;2023-07-13T06:14:31;27.84;55.07
78902;DHT22;70441;44.758;37.686;2023-07-13T06:15:32;27.80;55.94
78902;DHT22;70441;44.758;37.686;2023-07-13T06:16:34;27.86;55.68
78902;DHT22;70441;44.758;37.686;2023-07-13T06:17:36;28.05;56.48
78902;DHT22;70441;44.758;37.686;2023-07-13T06:18:38;28.22;55.13
78902;DHT22;70441;44.758;37.686;2023-07-13T06:19:40;28.42;54.44
78902;DHT22;70441;44.758;37.686;2023-07-13T06:20:41;28.57;54.52
78902;DHT22;70441;44.758;37.686;2023-07-13T06:21:43;28.75;52.67
78902;DHT22;70441;44.758;37.686;2023-07-13T06:22:44;28.80;51.86
78902;DHT22;70441;44.758;37.686;2023-07-13T06:23:47;28.68;51.87
78902;DHT22;70441;44.758;37.686;2023-07-13T06:24:51;28.52;52.29
78902;DHT22;70441;44.758;37.686;2023-07-13T06:25:53;28.41;52.35
78902;DHT22;70441;44.758;37.686;2023-07-13T06:26:54;28.31;50.55
78902;DHT22;70441;44.758;37.686;2023-07-13T06:28:01;28.22;52.01
78902;DHT22;70441;44.758;37.686;2023-07-13T06:29:03;28.18;52.92
78902;DHT22;70441;44.758;37.686;2023-07-13T06:30:10;28.05;53.08
78902;DHT22;70441;44.758;37.686;2023-07-13T06:31:13;28.02;53.75
78902;DHT22;70441;44.758;37.686;2023-07-13T06:32:15;28.01;54.53
78902;DHT22;70441;44.758;37.686;2023-07-13T06:33:17;28.00;55.25